Big Bear Station Historical Data
Daily Summary for August 14, 2017 Units:  English    Metric   Both
Next Day »
Daily Weekly Monthly Yearly Custom
  High: Low: Average:
Temperature: 74.7 °F 49.6 °F 61.3 °F
Dew Point: 42.2 °F 9.5 °F 32.5 °F
Humidity: 56% 17% 36%
Wind Speed: 8.9mph 0.0mph 3.1mph
Wind Gust: -999.0mph - -
Wind- - SW
Pressure: 30.21 in 30.12 in -
Precipitation: 0.00 in    
Historical Graphs
 
 
Tabular Data for August 14, 2017
Time Temperature Dew Point Pressure Wind Wind Speed Wind Gust Humidity Rainfall Rate (Hourly)
00:04 53.2 °F 9.5 °F 30.21 in South 2.7 mph -999.0 mph 17% 0 in
00:19 52.3 °F 15.6 °F 30.21 in South 1.7 mph -999.0 mph 23% 0 in
00:35 51.6 °F 15.9 °F 30.21 in SSE 2.2 mph -999.0 mph 24% 0 in
00:50 52.0 °F 13.2 °F 30.21 in SSW 2.7 mph -999.0 mph 21% 0 in
01:05 50.9 °F 15.4 °F 30.21 in South 2.2 mph -999.0 mph 24% 0 in
01:20 50.4 °F 11.9 °F 30.20 in SW 2.2 mph -999.0 mph 21% 0 in
01:35 49.8 °F 12.4 °F 30.20 in South 1.7 mph -999.0 mph 22% 0 in
01:51 50.2 °F 19.9 °F 30.20 in South 2.7 mph -999.0 mph 30% 0 in
02:06 49.8 °F 25.2 °F 30.20 in Calm   -999.0 mph 38% 0 in
02:21 49.6 °F 17.8 °F 30.20 in South 2.2 mph -999.0 mph 28% 0 in
02:36 50.4 °F 16.8 °F 30.19 in South 1.1 mph -999.0 mph 26% 0 in
02:52 51.1 °F 19.9 °F 30.19 in South 2.7 mph -999.0 mph 29% 0 in
03:07 53.1 °F 26.2 °F 30.19 in SSW 2.7 mph -999.0 mph 35% 0 in
03:22 52.9 °F 30.4 °F 30.18 in SSE 2.2 mph -999.0 mph 42% 0 in
03:38 54.3 °F 32.3 °F 30.18 in South 2.2 mph -999.0 mph 43% 0 in
03:53 54.7 °F 34.3 °F 30.18 in SSW 2.2 mph -999.0 mph 46% 0 in
04:08 53.8 °F 34.0 °F 30.18 in Calm   -999.0 mph 47% 0 in
04:23 53.4 °F 34.7 °F 30.18 in SE 1.7 mph -999.0 mph 49% 0 in
04:39 53.6 °F 34.9 °F 30.17 in South 2.7 mph -999.0 mph 49% 0 in
04:54 53.6 °F 34.9 °F 30.18 in South 2.2 mph -999.0 mph 49% 0 in
05:09 54.0 °F 35.3 °F 30.17 in SSE 2.2 mph -999.0 mph 49% 0 in
05:24 53.4 °F 36.2 °F 30.17 in Calm   -999.0 mph 52% 0 in
05:39 53.6 °F 35.4 °F 30.17 in Calm   -999.0 mph 50% 0 in
05:55 54.0 °F 34.7 °F 30.17 in Calm   -999.0 mph 48% 0 in
06:10 53.8 °F 36.6 °F 30.17 in South 1.1 mph -999.0 mph 52% 0 in
06:25 53.4 °F 36.2 °F 30.17 in Calm   -999.0 mph 52% 0 in
06:40 54.0 °F 35.3 °F 30.17 in Calm   -999.0 mph 49% 0 in
06:55 53.4 °F 37.2 °F 30.18 in Calm   -999.0 mph 54% 0 in
07:11 54.0 °F 38.7 °F 30.18 in Calm   -999.0 mph 56% 0 in
07:26 55.4 °F 39.5 °F 30.18 in Calm   -999.0 mph 55% 0 in
07:41 56.7 °F 40.2 °F 30.18 in ESE 1.1 mph -999.0 mph 54% 0 in
07:56 58.3 °F 40.2 °F 30.18 in WSW 1.7 mph -999.0 mph 51% 0 in
08:11 59.0 °F 40.9 °F 30.18 in NW 3.7 mph -999.0 mph 51% 0 in
08:27 60.8 °F 41.0 °F 30.18 in Calm   -999.0 mph 48% 0 in
08:42 61.2 °F 41.4 °F 30.18 in Calm   -999.0 mph 48% 0 in
08:57 62.6 °F 41.5 °F 30.18 in NE 1.7 mph -999.0 mph 46% 0 in
09:12 63.5 °F 40.0 °F 30.18 in West 4.2 mph -999.0 mph 42% 0 in
09:28 64.9 °F 39.3 °F 30.18 in NW 3.2 mph -999.0 mph 39% 0 in
09:43 65.1 °F 38.9 °F 30.18 in East 4.2 mph -999.0 mph 38% 0 in
09:58 65.5 °F 39.2 °F 30.19 in NNW 2.7 mph -999.0 mph 38% 0 in
10:14 67.1 °F 39.3 °F 30.19 in SSE 2.7 mph -999.0 mph 36% 0 in
10:30 67.3 °F 38.7 °F 30.19 in SSE 4.2 mph -999.0 mph 35% 0 in
10:45 68.2 °F 39.5 °F 30.19 in ESE 3.7 mph -999.0 mph 35% 0 in
11:00 69.4 °F 39.0 °F 30.20 in WNW 6.3 mph -999.0 mph 33% 0 in
11:15 70.3 °F 37.4 °F 30.20 in SSW 4.7 mph -999.0 mph 30% 0 in
11:31 72.9 °F 38.8 °F 30.19 in NNW 4.2 mph -999.0 mph 29% 0 in
11:46 72.9 °F 36.0 °F 30.19 in East 2.7 mph -999.0 mph 26% 0 in
12:01 73.9 °F 35.9 °F 30.19 in SSE 3.7 mph -999.0 mph 25% 0 in
12:17 73.0 °F 34.1 °F 30.19 in East 3.2 mph -999.0 mph 24% 0 in
12:32 73.9 °F 32.7 °F 30.19 in SSE 6.8 mph -999.0 mph 22% 0 in
12:47 73.8 °F 31.4 °F 30.18 in WNW 5.8 mph -999.0 mph 21% 0 in
13:03 74.7 °F 33.3 °F 30.18 in NNW 6.8 mph -999.0 mph 22% 0 in
13:18 74.1 °F 30.5 °F 30.19 in NNE 4.2 mph -999.0 mph 20% 0 in
13:33 74.3 °F 29.4 °F 30.18 in SSE 5.8 mph -999.0 mph 19% 0 in
13:48 74.3 °F 31.8 °F 30.18 in NNW 4.7 mph -999.0 mph 21% 0 in
14:03 73.8 °F 29.0 °F 30.18 in NNW 6.3 mph -999.0 mph 19% 0 in
14:19 74.5 °F 35.3 °F 30.18 in NNW 6.3 mph -999.0 mph 24% 0 in
14:34 73.2 °F 30.9 °F 30.17 in NNW 4.7 mph -999.0 mph 21% 0 in
14:50 74.1 °F 30.5 °F 30.17 in WNW 7.8 mph -999.0 mph 20% 0 in
15:05 72.9 °F 30.7 °F 30.17 in NW 5.8 mph -999.0 mph 21% 0 in
15:20 71.6 °F 35.8 °F 30.17 in SSE 3.7 mph -999.0 mph 27% 0 in
15:35 72.3 °F 36.4 °F 30.17 in SE 3.2 mph -999.0 mph 27% 0 in
15:51 70.9 °F 36.2 °F 30.16 in NNW 5.3 mph -999.0 mph 28% 0 in
16:07 72.0 °F 37.1 °F 30.16 in NW 2.2 mph -999.0 mph 28% 0 in
16:22 71.1 °F 37.2 °F 30.15 in ESE 2.7 mph -999.0 mph 29% 0 in
16:37 70.7 °F 37.7 °F 30.15 in South 2.7 mph -999.0 mph 30% 0 in
16:52 70.5 °F 33.0 °F 30.15 in NNW 7.3 mph -999.0 mph 25% 0 in
17:08 71.2 °F 29.3 °F 30.15 in NNW 4.7 mph -999.0 mph 21% 0 in
17:23 72.0 °F 27.5 °F 30.14 in WNW 6.8 mph -999.0 mph 19% 0 in
17:39 72.0 °F 32.2 °F 30.14 in NW 8.9 mph -999.0 mph 23% 0 in
17:54 69.1 °F 34.6 °F 30.15 in East 2.2 mph -999.0 mph 28% 0 in
18:09 68.5 °F 33.2 °F 30.14 in North 7.8 mph -999.0 mph 27% 0 in
18:24 67.1 °F 29.1 °F 30.13 in WNW 3.2 mph -999.0 mph 24% 0 in
18:40 65.5 °F 31.5 °F 30.14 in SW 1.1 mph -999.0 mph 28% 0 in
18:55 63.1 °F 39.0 °F 30.14 in NNE 4.2 mph -999.0 mph 41% 0 in
19:10 60.4 °F 42.2 °F 30.13 in West 4.7 mph -999.0 mph 51% 0 in
19:26 59.4 °F 41.8 °F 30.13 in WNW 8.3 mph -999.0 mph 52% 0 in
19:41 58.3 °F 39.7 °F 30.13 in NW 2.2 mph -999.0 mph 50% 0 in
19:56 57.4 °F 40.4 °F 30.13 in SSE 2.2 mph -999.0 mph 53% 0 in
20:26 55.9 °F 39.0 °F 30.14 in WNW 1.7 mph -999.0 mph 53% 0 in
20:42 55.6 °F 40.1 °F 30.13 in NW 4.2 mph -999.0 mph 56% 0 in
20:58 55.6 °F 37.2 °F 30.13 in WNW 3.2 mph -999.0 mph 50% 0 in
21:13 55.2 °F 36.9 °F 30.14 in NW 4.2 mph -999.0 mph 50% 0 in
21:28 54.9 °F 35.6 °F 30.14 in West 1.7 mph -999.0 mph 48% 0 in
21:43 54.5 °F 34.7 °F 30.14 in NW 1.1 mph -999.0 mph 47% 0 in
21:59 54.7 °F 33.8 °F 30.14 in North 2.2 mph -999.0 mph 45% 0 in
22:14 54.3 °F 32.8 °F 30.13 in ENE 4.7 mph -999.0 mph 44% 0 in
22:29 54.3 °F 25.8 °F 30.13 in Calm   -999.0 mph 33% 0 in
22:44 54.3 °F 24.3 °F 30.12 in Calm   -999.0 mph 31% 0 in
22:59 55.4 °F 26.8 °F 30.12 in SSW 3.7 mph -999.0 mph 33% 0 in
23:15 55.4 °F 28.2 °F 30.12 in West 4.7 mph -999.0 mph 35% 0 in
23:30 55.4 °F 22.8 °F 30.12 in NNE 5.3 mph -999.0 mph 28% 0 in
23:45 55.4 °F 26.8 °F 30.13 in SSW 1.7 mph -999.0 mph 33% 0 in
Big Bear CA Weather